createdAt,value
2023-03-19T00:00:31.367Z,69.24
2023-03-19T00:02:58.366Z,69.34
2023-03-19T00:05:26.197Z,69.60
2023-03-19T00:07:52.987Z,70.57
2023-03-19T00:10:20.361Z,69.36
2023-03-19T00:12:47.514Z,69.78
2023-03-19T00:15:15.843Z,69.78
2023-03-19T00:17:43.294Z,70.32
2023-03-19T00:20:12.472Z,71.03
2023-03-19T00:22:40.127Z,71.60
2023-03-19T00:25:10.075Z,68.60
2023-03-19T00:27:38.416Z,68.56
2023-03-19T00:30:09.431Z,68.94
2023-03-19T00:32:37.154Z,68.67
2023-03-19T00:35:06.587Z,68.66
2023-03-19T00:37:34.485Z,68.41
2023-03-19T00:40:01.846Z,67.76
2023-03-19T00:42:28.713Z,67.15
2023-03-19T00:44:55.920Z,66.88
2023-03-19T00:47:25.077Z,66.67
2023-03-19T00:49:51.949Z,66.23
2023-03-19T00:52:18.764Z,65.97
2023-03-19T00:54:45.740Z,65.84
2023-03-19T00:57:12.689Z,65.62
2023-03-19T00:59:39.492Z,65.38
2023-03-19T01:02:06.264Z,65.12
2023-03-19T01:04:33.592Z,64.91
2023-03-19T01:07:03.482Z,65.11
2023-03-19T01:09:30.682Z,65.01
2023-03-19T01:11:57.514Z,65.13
2023-03-19T01:14:24.638Z,65.02
2023-03-19T01:16:52.010Z,65.27
2023-03-19T01:19:20.205Z,65.41
2023-03-19T01:21:47.081Z,65.63
2023-03-19T01:24:17.966Z,65.98
2023-03-19T01:26:47.573Z,66.15
2023-03-19T01:29:25.241Z,66.81
2023-03-19T01:31:53.163Z,66.99
2023-03-19T01:34:38.440Z,67.40
2023-03-19T01:37:09.370Z,67.85
2023-03-19T01:39:36.684Z,67.95
2023-03-19T01:42:08.481Z,68.24
2023-03-19T01:44:49.339Z,68.84
2023-03-19T01:47:38.338Z,68.91
2023-03-19T01:50:38.036Z,68.67
2023-03-19T01:53:19.173Z,68.55
2023-03-19T01:55:54.676Z,68.04
2023-03-19T01:58:40.143Z,68.46
2023-03-19T02:01:21.243Z,68.90
2023-03-19T02:03:53.045Z,69.24
2023-03-19T02:06:30.364Z,69.05
2023-03-19T02:08:58.743Z,69.00
2023-03-19T02:11:26.336Z,69.42
2023-03-19T02:13:53.520Z,69.58
2023-03-19T02:16:20.600Z,69.84
2023-03-19T02:18:48.636Z,69.97
2023-03-19T02:21:17.708Z,70.64
2023-03-19T02:24:04.949Z,70.45
2023-03-19T02:26:56.722Z,70.23
2023-03-19T02:29:23.646Z,70.89
2023-03-19T02:31:50.424Z,71.21
2023-03-19T02:34:20.415Z,71.42
2023-03-19T02:37:09.033Z,71.48
2023-03-19T02:39:41.632Z,71.53
2023-03-19T02:42:11.583Z,71.83
2023-03-19T02:44:38.376Z,72.91
2023-03-19T02:47:05.607Z,73.12
2023-03-19T02:49:32.423Z,73.16
2023-03-19T02:51:59.352Z,72.77
2023-03-19T02:54:26.399Z,72.51
2023-03-19T02:56:53.388Z,72.19
2023-03-19T02:59:21.478Z,71.79
2023-03-19T03:01:48.615Z,71.56
2023-03-19T03:04:16.708Z,71.66
2023-03-19T03:06:45.009Z,71.58
2023-03-19T03:09:13.480Z,72.02
2023-03-19T03:11:43.543Z,72.58
2023-03-19T03:14:11.982Z,72.85
2023-03-19T03:16:38.975Z,72.88
2023-03-19T03:19:06.047Z,72.58
2023-03-19T03:21:35.550Z,72.44
2023-03-19T03:24:03.305Z,72.78
2023-03-19T03:26:30.156Z,72.99
2023-03-19T03:28:57.102Z,73.00
2023-03-19T03:31:23.983Z,72.96
2023-03-19T03:33:51.110Z,73.22
2023-03-19T03:36:17.886Z,73.28
2023-03-19T03:38:46.130Z,73.38
2023-03-19T03:41:13.009Z,73.53
2023-03-19T03:43:41.098Z,74.02
2023-03-19T03:46:08.820Z,74.37
2023-03-19T03:48:36.138Z,73.76
2023-03-19T03:51:04.416Z,74.09
2023-03-19T03:53:32.218Z,73.62
2023-03-19T03:55:59.531Z,73.33
2023-03-19T03:58:28.383Z,73.52
2023-03-19T04:00:55.780Z,73.85
2023-03-19T04:03:24.398Z,73.90
2023-03-19T04:05:51.896Z,74.10
2023-03-19T04:08:20.558Z,74.26
2023-03-19T04:10:47.335Z,74.35
2023-03-19T04:13:14.504Z,74.67
2023-03-19T04:15:45.220Z,75.01
2023-03-19T04:18:13.407Z,74.94
2023-03-19T04:20:41.467Z,74.63
2023-03-19T04:23:08.432Z,74.72
2023-03-19T04:25:35.293Z,74.72
2023-03-19T04:28:02.171Z,74.50
2023-03-19T04:30:29.185Z,74.51
2023-03-19T04:32:56.837Z,74.51
2023-03-19T04:35:23.922Z,74.42
2023-03-19T04:37:50.790Z,74.41
2023-03-19T04:40:20.567Z,74.36
2023-03-19T04:42:48.578Z,74.76
2023-03-19T04:45:29.241Z,74.70
2023-03-19T04:47:56.383Z,74.72
2023-03-19T04:50:23.548Z,74.75
2023-03-19T04:52:51.087Z,74.88
2023-03-19T04:55:18.319Z,74.70
2023-03-19T04:57:51.908Z,74.52
2023-03-19T05:00:21.219Z,74.44
2023-03-19T05:02:48.714Z,74.18
2023-03-19T05:05:16.058Z,74.14
2023-03-19T05:07:43.084Z,73.98
2023-03-19T05:10:11.698Z,73.69
2023-03-19T05:12:38.836Z,73.51
2023-03-19T05:15:07.607Z,73.41
2023-03-19T05:17:42.967Z,73.62
2023-03-19T05:20:21.670Z,73.84
2023-03-19T05:22:54.614Z,73.12
2023-03-19T05:25:28.953Z,72.91
2023-03-19T05:27:57.012Z,70.75
2023-03-19T05:30:24.977Z,65.81
2023-03-19T05:33:12.814Z,59.34
2023-03-19T05:35:41.928Z,56.39
2023-03-19T05:38:16.704Z,53.29
2023-03-19T05:40:48.735Z,50.84
2023-03-19T05:43:23.666Z,48.67
2023-03-19T05:45:52.732Z,46.31
2023-03-19T05:48:23.596Z,44.34
2023-03-19T05:50:51.299Z,43.87
2023-03-19T05:53:21.581Z,41.05
2023-03-19T05:56:07.753Z,39.55
2023-03-19T05:58:44.091Z,38.30
2023-03-19T06:01:11.528Z,37.32
2023-03-19T06:03:38.502Z,36.39
2023-03-19T06:06:08.474Z,35.57
2023-03-19T06:08:39.608Z,34.34
2023-03-19T06:11:27.310Z,33.74
2023-03-19T06:14:14.387Z,33.23
2023-03-19T06:16:46.627Z,33.05
2023-03-19T06:19:13.466Z,32.32
2023-03-19T06:21:40.687Z,31.70
2023-03-19T06:24:07.824Z,31.57
2023-03-19T06:26:35.949Z,31.09
2023-03-19T06:29:08.455Z,31.20
2023-03-19T06:31:36.384Z,30.54
2023-03-19T06:34:11.386Z,30.45
2023-03-19T06:36:41.085Z,29.39
2023-03-19T06:39:10.802Z,29.06
2023-03-19T06:41:37.908Z,29.13
2023-03-19T06:44:16.432Z,27.81
2023-03-19T06:46:43.351Z,27.55
2023-03-19T06:49:10.301Z,27.20
2023-03-19T06:51:37.100Z,27.31
2023-03-19T06:54:04.019Z,27.07
2023-03-19T06:56:30.885Z,26.20
2023-03-19T06:58:57.639Z,26.24
2023-03-19T07:01:25.519Z,26.21
2023-03-19T07:03:52.381Z,26.03
2023-03-19T07:06:19.336Z,26.52
2023-03-19T07:08:46.587Z,25.60
2023-03-19T07:11:14.545Z,25.59
2023-03-19T07:13:41.296Z,24.58
2023-03-19T07:16:08.789Z,24.94
2023-03-19T07:18:36.006Z,26.30
2023-03-19T07:21:03.331Z,27.46
2023-03-19T07:23:30.143Z,29.25
2023-03-19T07:25:57.114Z,31.36
2023-03-19T07:28:23.951Z,33.30
2023-03-19T07:30:54.189Z,34.99
2023-03-19T07:33:22.077Z,36.78
2023-03-19T07:35:49.069Z,38.11
2023-03-19T07:38:16.075Z,39.54
2023-03-19T07:40:51.353Z,41.59
2023-03-19T07:43:26.375Z,42.06
2023-03-19T07:45:53.453Z,42.52
2023-03-19T07:48:21.051Z,43.32
2023-03-19T07:50:51.325Z,43.77
2023-03-19T07:53:18.575Z,44.30
2023-03-19T07:55:45.392Z,44.38
2023-03-19T07:58:12.330Z,44.67
2023-03-19T08:00:39.164Z,45.61
2023-03-19T08:03:06.186Z,45.41
2023-03-19T08:05:33.615Z,45.32
2023-03-19T08:08:00.562Z,45.51
2023-03-19T08:10:27.440Z,44.93
2023-03-19T08:12:54.393Z,44.83
2023-03-19T08:15:21.532Z,44.90
2023-03-19T08:17:49.139Z,44.42
2023-03-19T08:20:16.876Z,44.14
2023-03-19T08:22:44.053Z,42.89
2023-03-19T08:25:11.391Z,42.43
2023-03-19T08:27:38.196Z,41.68
2023-03-19T08:30:07.379Z,41.45
2023-03-19T08:32:34.602Z,41.23
2023-03-19T08:35:01.495Z,41.24
2023-03-19T08:37:28.394Z,40.36
2023-03-19T08:39:55.244Z,41.01
2023-03-19T08:42:22.858Z,40.71
2023-03-19T08:44:50.066Z,40.64
2023-03-19T08:47:16.821Z,40.01
2023-03-19T08:49:43.610Z,39.86
2023-03-19T08:52:10.746Z,39.70
2023-03-19T08:54:37.626Z,38.06
2023-03-19T08:57:04.564Z,38.43
2023-03-19T08:59:34.097Z,37.63
2023-03-19T09:02:01.718Z,37.18
2023-03-19T09:04:28.994Z,35.49
2023-03-19T09:06:56.211Z,35.53
2023-03-19T09:09:24.880Z,35.12
2023-03-19T09:11:51.791Z,34.31
2023-03-19T09:14:20.205Z,34.90
2023-03-19T09:16:47.243Z,33.35
2023-03-19T09:19:14.257Z,33.83
2023-03-19T09:21:41.528Z,33.54
2023-03-19T09:24:08.390Z,33.94
2023-03-19T09:26:35.365Z,33.30
2023-03-19T09:29:04.252Z,31.99
2023-03-19T09:31:31.383Z,32.23
2023-03-19T09:33:58.610Z,31.88
2023-03-19T09:36:26.716Z,32.67
2023-03-19T09:38:55.034Z,32.56
2023-03-19T09:41:28.389Z,32.11
2023-03-19T09:43:57.860Z,30.98
2023-03-19T09:46:38.999Z,30.83
2023-03-19T09:49:29.802Z,30.06
2023-03-19T09:52:24.796Z,29.90
2023-03-19T09:54:56.746Z,29.08
2023-03-19T09:57:23.546Z,29.69
2023-03-19T09:59:52.313Z,29.75
2023-03-19T10:02:22.139Z,29.64
2023-03-19T10:05:08.857Z,29.61
2023-03-19T10:07:57.777Z,28.28
2023-03-19T10:10:48.532Z,27.23
2023-03-19T10:13:47.430Z,28.30
2023-03-19T10:16:22.683Z,27.26
2023-03-19T10:18:52.971Z,28.16
2023-03-19T10:21:40.360Z,27.51
2023-03-19T10:24:15.727Z,27.44
2023-03-19T10:26:45.955Z,26.85
2023-03-19T10:29:20.591Z,26.97
2023-03-19T10:32:00.790Z,26.91
2023-03-19T10:34:41.671Z,27.33
2023-03-19T10:37:28.419Z,27.00
2023-03-19T10:40:00.305Z,26.31
2023-03-19T10:43:04.096Z,27.31
2023-03-19T10:45:36.166Z,27.03
2023-03-19T10:48:06.324Z,25.51
2023-03-19T10:50:55.651Z,25.97
2023-03-19T10:53:28.449Z,26.69
2023-03-19T10:56:03.899Z,25.44
2023-03-19T10:58:33.047Z,25.94
2023-03-19T11:01:06.222Z,25.78
2023-03-19T11:03:49.509Z,24.77
2023-03-19T11:06:25.060Z,23.85
2023-03-19T11:09:01.117Z,23.60
2023-03-19T11:11:42.794Z,23.24
2023-03-19T11:14:16.583Z,23.50
2023-03-19T11:17:17.500Z,23.18
2023-03-19T11:19:57.632Z,21.31
2023-03-19T11:22:36.804Z,21.95
2023-03-19T11:25:15.655Z,20.57
2023-03-19T11:27:42.413Z,20.19
2023-03-19T11:30:20.002Z,19.59
2023-03-19T11:32:55.710Z,19.47
2023-03-19T11:35:49.565Z,20.05
2023-03-19T11:38:51.062Z,18.88
2023-03-19T11:41:52.483Z,18.64
2023-03-19T11:44:26.302Z,18.02
2023-03-19T11:47:14.806Z,17.48
2023-03-19T11:50:00.471Z,16.58
2023-03-19T11:52:53.307Z,16.72
2023-03-19T11:55:23.620Z,16.22
2023-03-19T11:58:28.658Z,16.21
2023-03-19T12:01:10.463Z,16.79
2023-03-19T12:04:18.178Z,16.80
2023-03-19T12:06:44.940Z,16.25
2023-03-19T12:09:24.017Z,17.09
2023-03-19T12:12:14.314Z,16.48
2023-03-19T12:15:19.591Z,15.68
2023-03-19T12:17:51.941Z,16.07
2023-03-19T12:20:34.871Z,15.31
2023-03-19T12:23:22.691Z,16.43
2023-03-19T12:26:08.796Z,15.11
2023-03-19T12:28:48.552Z,15.92
2023-03-19T12:31:18.403Z,15.73
2023-03-19T12:33:48.832Z,15.97
2023-03-19T12:36:25.651Z,16.56
2023-03-19T12:39:02.147Z,16.60
2023-03-19T12:41:31.562Z,15.87
2023-03-19T12:44:11.570Z,15.64
2023-03-19T12:47:02.846Z,15.51
2023-03-19T12:49:46.370Z,14.86
2023-03-19T12:52:25.107Z,15.42
2023-03-19T12:55:03.201Z,15.55
2023-03-19T12:57:30.761Z,14.00
2023-03-19T13:00:42.393Z,14.34
2023-03-19T13:03:57.338Z,14.66
2023-03-19T13:06:30.411Z,13.95
2023-03-19T13:09:01.390Z,13.96
2023-03-19T13:11:48.228Z,14.82
2023-03-19T13:14:36.684Z,14.77
2023-03-19T13:39:58.920Z,14.38
2023-03-19T13:42:42.283Z,14.41
2023-03-19T13:45:34.662Z,13.22
2023-03-19T13:48:29.050Z,14.36
2023-03-19T13:51:25.852Z,13.65
2023-03-19T13:54:18.374Z,12.83
2023-03-19T13:57:04.021Z,13.58
2023-03-19T13:59:33.719Z,13.87
2023-03-19T14:02:39.795Z,13.16
2023-03-19T14:05:15.684Z,13.81
2023-03-19T14:07:48.357Z,13.42
2023-03-19T14:10:27.938Z,13.44
2023-03-19T14:13:09.000Z,12.91
2023-03-19T14:15:41.231Z,13.04
2023-03-19T14:18:18.787Z,13.24
2023-03-19T14:20:53.846Z,13.50
2023-03-19T14:23:38.532Z,13.47
2023-03-19T14:26:07.345Z,13.71
2023-03-19T14:28:41.596Z,13.19
2023-03-19T14:31:23.827Z,13.38
2023-03-19T14:34:02.553Z,13.99
2023-03-19T14:36:31.361Z,13.57
2023-03-19T14:39:07.454Z,13.64
2023-03-19T14:41:42.612Z,13.17
2023-03-19T14:44:35.048Z,12.98
2023-03-19T14:47:26.591Z,13.50
2023-03-19T14:50:15.156Z,13.97
2023-03-19T14:53:07.685Z,13.41
2023-03-19T14:55:37.897Z,13.71
2023-03-19T14:58:05.700Z,13.29
2023-03-19T15:00:50.579Z,12.88
2023-03-19T15:03:37.985Z,13.32
2023-03-19T15:06:08.096Z,13.40
2023-03-19T15:08:39.260Z,13.39
2023-03-19T15:11:15.159Z,13.20
2023-03-19T15:13:54.331Z,14.84
2023-03-19T15:16:49.220Z,15.58
2023-03-19T15:19:23.795Z,15.79
2023-03-19T15:21:50.760Z,15.65
2023-03-19T15:24:18.037Z,15.90
2023-03-19T15:26:46.092Z,16.03
2023-03-19T15:29:13.690Z,15.55
2023-03-19T15:31:54.807Z,15.42
2023-03-19T15:34:31.321Z,15.55
2023-03-19T15:37:03.082Z,15.74
2023-03-19T15:39:35.121Z,15.87
2023-03-19T15:42:04.501Z,16.64
2023-03-19T15:44:42.709Z,17.36
2023-03-19T15:47:16.015Z,17.38
2023-03-19T15:50:01.457Z,18.68
2023-03-19T15:52:32.186Z,17.31
2023-03-19T15:55:01.499Z,17.51
2023-03-19T15:57:28.981Z,17.84
2023-03-19T15:59:57.817Z,17.96
2023-03-19T16:02:32.898Z,17.84
2023-03-19T16:05:22.564Z,17.78
2023-03-19T16:07:58.684Z,18.91
2023-03-19T16:10:28.176Z,19.79
2023-03-19T16:12:56.156Z,20.43
2023-03-19T16:15:43.915Z,20.92
2023-03-19T16:18:16.866Z,21.79
2023-03-19T16:20:46.103Z,22.43
2023-03-19T16:23:18.535Z,23.48
2023-03-19T16:25:46.658Z,23.75
2023-03-19T16:28:19.168Z,23.73
2023-03-19T16:30:48.257Z,24.36
2023-03-19T16:33:15.447Z,25.81
2023-03-19T16:35:44.767Z,26.42
2023-03-19T16:38:18.538Z,26.48
2023-03-19T16:40:48.003Z,26.78
2023-03-19T16:43:34.298Z,28.29
2023-03-19T16:46:08.472Z,28.45
2023-03-19T16:48:35.407Z,28.89
2023-03-19T16:51:02.466Z,29.20
2023-03-19T16:53:31.746Z,30.51
2023-03-19T16:56:00.917Z,30.74
2023-03-19T16:58:36.133Z,32.93
2023-03-19T17:01:23.060Z,32.58
2023-03-19T17:03:50.830Z,33.38
2023-03-19T17:06:18.849Z,34.52
2023-03-19T17:08:45.782Z,33.70
2023-03-19T17:11:21.284Z,34.18
2023-03-19T17:13:48.178Z,33.76
2023-03-19T17:16:15.435Z,33.25
2023-03-19T17:18:43.718Z,33.58
2023-03-19T17:21:47.219Z,34.18
2023-03-19T17:24:26.714Z,37.11
2023-03-19T17:26:54.885Z,37.55
2023-03-19T17:29:23.850Z,37.38
2023-03-19T17:31:52.223Z,38.10
2023-03-19T17:34:26.355Z,39.01
2023-03-19T17:37:01.925Z,39.81
2023-03-19T17:39:30.131Z,40.71
2023-03-19T17:41:57.855Z,41.11
2023-03-19T17:44:24.925Z,41.36
2023-03-19T17:46:53.926Z,41.58
2023-03-19T17:49:31.807Z,42.45
2023-03-19T17:51:59.889Z,43.23
2023-03-19T17:54:27.975Z,42.50
2023-03-19T17:56:55.302Z,43.89
2023-03-19T17:59:23.003Z,43.68
2023-03-19T18:01:49.933Z,44.97
2023-03-19T18:04:19.178Z,45.25
2023-03-19T18:06:51.440Z,45.94
2023-03-19T18:09:23.853Z,46.09
2023-03-19T18:11:50.942Z,46.22
2023-03-19T18:14:17.999Z,46.53
2023-03-19T18:16:45.460Z,45.96
2023-03-19T18:19:34.366Z,46.36
2023-03-19T18:22:01.376Z,46.30
2023-03-19T18:24:28.217Z,46.59
2023-03-19T18:26:55.701Z,46.21
2023-03-19T18:29:22.500Z,46.19
2023-03-19T18:31:51.272Z,46.66
2023-03-19T18:34:18.438Z,47.06
2023-03-19T18:36:45.435Z,47.99
2023-03-19T18:39:16.452Z,48.42
2023-03-19T18:41:44.184Z,48.18
2023-03-19T18:44:12.346Z,49.17
2023-03-19T18:46:40.427Z,49.02
2023-03-19T18:49:41.456Z,48.91
2023-03-19T18:52:13.076Z,49.54
2023-03-19T18:54:40.261Z,49.60
2023-03-19T18:57:10.999Z,50.16
2023-03-19T18:59:37.976Z,50.55
2023-03-19T19:02:14.001Z,50.92
2023-03-19T19:04:41.836Z,50.85
2023-03-19T19:07:15.073Z,51.38
2023-03-19T19:09:42.331Z,51.72
2023-03-19T19:12:13.429Z,51.72
2023-03-19T19:14:40.855Z,53.25
2023-03-19T19:17:16.858Z,52.36
2023-03-19T19:19:43.784Z,53.43
2023-03-19T19:22:14.717Z,53.93
2023-03-19T19:24:41.596Z,54.39
2023-03-19T19:27:17.571Z,54.52
2023-03-19T19:29:45.346Z,54.05
2023-03-19T19:32:29.554Z,54.06
2023-03-19T19:34:56.812Z,53.93
2023-03-19T19:37:23.884Z,55.10
2023-03-19T19:39:51.290Z,54.41
2023-03-19T19:42:21.232Z,53.78
2023-03-19T19:44:53.776Z,53.54
2023-03-19T19:47:21.049Z,53.14
2023-03-19T19:49:47.908Z,53.16
2023-03-19T19:52:17.401Z,53.50
2023-03-19T19:54:46.168Z,54.50
2023-03-19T19:57:25.015Z,54.59
2023-03-19T19:59:53.213Z,55.23
2023-03-19T20:02:28.908Z,55.37
2023-03-19T20:04:57.288Z,54.56
2023-03-19T20:07:24.361Z,54.65
2023-03-19T20:09:51.503Z,55.17
2023-03-19T20:12:25.567Z,55.34
2023-03-19T20:14:52.804Z,55.63
2023-03-19T20:17:21.163Z,55.36
2023-03-19T20:19:48.418Z,56.06
2023-03-19T20:22:15.537Z,55.36
2023-03-19T20:24:43.199Z,55.21
2023-03-19T20:27:20.637Z,55.08
2023-03-19T20:29:47.871Z,55.26
2023-03-19T20:32:31.479Z,55.55
2023-03-19T20:35:00.591Z,55.81
2023-03-19T20:37:27.925Z,55.85
2023-03-19T20:39:55.076Z,56.00
2023-03-19T20:42:22.285Z,55.81
2023-03-19T20:44:51.534Z,55.97
2023-03-19T20:47:21.468Z,55.51
2023-03-19T20:49:49.298Z,56.17
2023-03-19T20:52:16.649Z,56.72
2023-03-19T20:54:43.703Z,56.74
2023-03-19T20:57:16.865Z,57.00
2023-03-19T20:59:46.335Z,57.05
2023-03-19T21:02:18.533Z,57.67
2023-03-19T21:04:46.678Z,57.58
2023-03-19T21:07:29.921Z,57.88
2023-03-19T21:09:58.776Z,58.09
2023-03-19T21:12:31.088Z,57.64
2023-03-19T21:15:00.151Z,57.33
2023-03-19T21:17:28.696Z,57.63
2023-03-19T21:19:56.779Z,57.83
2023-03-19T21:22:28.621Z,57.48
2023-03-19T21:25:18.988Z,57.16
2023-03-19T21:27:49.197Z,56.92
2023-03-19T21:30:17.486Z,57.63
2023-03-19T21:32:44.451Z,56.93
2023-03-19T21:35:22.810Z,57.68
2023-03-19T21:37:50.448Z,57.58
2023-03-19T21:40:28.281Z,57.22
2023-03-19T21:42:59.694Z,57.75
2023-03-19T21:45:36.509Z,58.09
2023-03-19T21:48:09.433Z,58.51
2023-03-19T21:50:36.285Z,59.10
2023-03-19T21:53:03.052Z,59.35
2023-03-19T21:55:32.890Z,59.35
2023-03-19T21:57:59.920Z,59.56
2023-03-19T22:00:26.734Z,59.86
2023-03-19T22:02:53.550Z,60.15
2023-03-19T22:05:20.440Z,58.64
2023-03-19T22:07:47.292Z,57.83
2023-03-19T22:10:14.683Z,57.62
2023-03-19T22:12:43.067Z,57.29
2023-03-19T22:15:26.717Z,57.00
2023-03-19T22:17:53.555Z,57.19
2023-03-19T22:20:23.349Z,57.49
2023-03-19T22:22:51.048Z,58.03
2023-03-19T22:25:18.952Z,57.87
2023-03-19T22:27:48.443Z,57.79
2023-03-19T22:30:23.140Z,57.74
2023-03-19T22:32:58.467Z,58.11
2023-03-19T22:35:26.003Z,58.31
2023-03-19T22:37:52.754Z,58.39
2023-03-19T22:40:19.930Z,58.24
2023-03-19T22:42:49.162Z,58.33
2023-03-19T22:45:34.637Z,57.94
2023-03-19T22:48:01.701Z,57.57
2023-03-19T22:50:31.769Z,57.27
2023-03-19T22:52:59.233Z,57.35
2023-03-19T22:55:26.016Z,57.15
2023-03-19T22:57:52.837Z,57.28
2023-03-19T23:00:23.902Z,57.03
2023-03-19T23:02:57.803Z,57.16
2023-03-19T23:05:28.644Z,56.87
2023-03-19T23:07:56.323Z,57.03
2023-03-19T23:10:25.803Z,57.87
2023-03-19T23:12:53.694Z,57.35
2023-03-19T23:15:20.982Z,57.74
2023-03-19T23:17:49.388Z,58.23
2023-03-19T23:20:19.678Z,58.00
2023-03-19T23:22:47.615Z,58.18
2023-03-19T23:25:22.698Z,58.17
2023-03-19T23:27:50.115Z,58.13
2023-03-19T23:30:28.337Z,58.16
2023-03-19T23:32:56.502Z,58.96
2023-03-19T23:35:26.241Z,59.03
2023-03-19T23:37:55.391Z,59.34
2023-03-19T23:40:24.700Z,59.81
2023-03-19T23:42:54.520Z,60.09
2023-03-19T23:45:29.340Z,59.84
2023-03-19T23:47:58.291Z,59.80
2023-03-19T23:50:25.994Z,59.24
2023-03-19T23:52:52.782Z,59.64
2023-03-19T23:55:19.671Z,59.48
2023-03-19T23:57:47.256Z,59.48
